Lanham, Texas
Current Conditions -  °F | °C
As of 12:15 PM on Monday 24 Nov 2014 (Local Time) from KGOP Reporting Station
Clear Clear  
Wind Chill: 55°   Ceiling: Unl
Heat Index: 55°   Visibility: 10mi
Dew Point: 30°   Wind: 3mph
Humidity: 38%   Direction: 330°NNW
Pressure: 30.12"   Gusts: NA
Location:  31.5973°N, 97.7586°W
Report Text: KGOP 241815Z AUTO 33003KT 10SM CLR 13/M01 A3012 RMK AO2 PWINO
Loading
Personal Weather Stations






























Interactive Weather Map New forecast layout! Learn more

10-Day Weather Forecast

Advertisements
Track Severe Weather on mobile